Time;durP1;ratioP1;P1;durP2;ratioP2;P2;SDS_P1;SDS_P2;PMS_P1;PMS_P2;Temp;Humidity;BMP_temperature;BMP_pressure;BME280_temperature;BME280_humidity;BME280_pressure;Samples;Min_cycle;Max_cycle;Signal;HPM_P1;HPM_P2
2021/12/21 16:58:53;;;;;;;14.30;7.28;;;;;;;1.00;70.60;100632.91;1093702;39;21490;-78
2021/12/21 17:59:00;;;;;;;10.18;5.50;;;;;;;1.04;70.16;100697.69;1096560;39;21018;-79
2021/12/21 18:00:06;;;;;;;10.27;5.68;;;;;;;1.05;70.21;100688.03;1087870;54;20058;-80
2021/12/21 18:01:11;;;;;;;10.15;5.90;;;;;;;1.07;70.24;100697.56;1087569;54;20022;-81
2021/12/21 18:04:01;;;;;;;12.73;7.63;;;;;;;1.11;70.29;100689.53;1089354;47;20023;-78
2021/12/21 18:05:06;;;;;;;14.38;9.20;;;;;;;1.14;70.46;100684.09;1091925;39;20764;-79
2021/12/21 18:06:16;;;;;;;14.23;9.70;;;;;;;1.18;70.39;100690.97;1087894;54;20110;-80
2021/12/21 18:07:24;;;;;;;17.00;10.38;;;;;;;1.18;70.30;100686.53;1092439;39;20774;-78
2021/12/21 18:08:26;;;;;;;13.60;9.57;;;;;;;1.20;70.57;100689.94;1087718;54;20061;-77
2021/12/21 18:09:43;;;;;;;13.93;8.50;;;;;;;1.20;70.37;100681.22;1087601;54;20010;-79
2021/12/21 18:11:00;;;;;;;14.05;8.90;;;;;;;1.20;70.08;100686.47;1087771;54;20022;-78
2021/12/21 18:12:05;;;;;;;11.85;7.53;;;;;;;1.23;70.33;100681.94;1087758;54;20061;-78
2021/12/21 18:13:10;;;;;;;11.98;7.18;;;;;;;1.25;70.21;100679.22;1087591;54;20039;-79
2021/12/21 18:14:18;;;;;;;10.75;6.80;;;;;;;1.27;70.16;100687.06;1088900;47;20801;-80
2021/12/21 18:15:22;;;;;;;13.77;6.95;;;;;;;1.23;70.08;100689.81;1087712;54;20034;-78
2021/12/21 18:16:27;;;;;;;13.30;7.25;;;;;;;1.24;70.07;100688.91;1087622;54;20049;-80
2021/12/21 18:17:32;;;;;;;11.70;7.28;;;;;;;1.27;70.28;100689.69;1087643;54;20034;-80
2021/12/21 18:18:37;;;;;;;13.80;7.05;;;;;;;1.22;70.22;100692.53;1087685;54;20046;-78
2021/12/21 18:19:41;;;;;;;12.23;6.90;;;;;;;1.23;70.34;100696.84;1087719;54;20030;-78
2021/12/21 18:20:48;;;;;;;11.32;7.10;;;;;;;1.27;70.45;100698.44;1088009;54;20780;-79
2021/12/21 18:21:50;;;;;;;10.98;6.55;;;;;;;1.27;70.35;100703.72;1088015;54;20110;-81
2021/12/21 18:23:08;;;;;;;12.10;6.82;;;;;;;1.27;70.21;100700.25;1090909;47;20844;-79
2021/12/21 18:24:15;;;;;;;13.20;7.03;;;;;;;1.25;70.43;100697.66;1088096;54;20081;-77
2021/12/21 18:25:17;;;;;;;13.32;7.10;;;;;;;1.27;70.37;100698.44;1087989;54;20023;-79
2021/12/21 18:26:21;;;;;;;12.07;6.78;;;;;;;1.24;70.20;100699.44;1087991;54;20041;-80
2021/12/21 18:27:26;;;;;;;12.55;7.70;;;;;;;1.24;70.47;100704.72;1088211;47;20034;-80
2021/12/21 18:29:14;;;;;;;11.23;6.55;;;;;;;1.22;69.74;100703.09;1088048;54;20061;-81
2021/12/21 18:30:22;;;;;;;10.02;6.85;;;;;;;1.19;70.17;100705.84;1095376;47;20079;-78
2021/12/21 18:31:32;;;;;;;12.60;7.68;;;;;;;1.15;70.09;100699.84;1088326;54;20033;-80
2021/12/21 18:32:34;;;;;;;11.20;7.25;;;;;;;1.11;70.13;100703.53;1088480;54;20030;-81
2021/12/21 18:33:39;;;;;;;11.82;8.18;;;;;;;1.03;70.37;100706.53;1091205;46;20034;-78
2021/12/21 18:34:44;;;;;;;11.00;7.68;;;;;;;1.00;70.47;100704.03;1088325;54;20066;-81
2021/12/21 18:35:46;;;;;;;13.65;7.30;;;;;;;0.99;70.45;100712.00;1088396;54;20049;-80
2021/12/21 18:36:51;;;;;;;13.88;8.80;;;;;;;0.99;70.66;100712.00;1088453;54;20018;-79
2021/12/21 18:38:04;;;;;;;13.25;7.97;;;;;;;0.98;70.29;100711.13;1088331;54;20026;-79
2021/12/21 18:39:19;;;;;;;13.50;8.27;;;;;;;0.95;70.49;100713.88;1088325;54;20038;-80
2021/12/21 18:40:26;;;;;;;9.85;7.25;;;;;;;0.92;70.43;100714.88;1088296;54;20042;-79
2021/12/21 18:41:31;;;;;;;10.25;6.80;;;;;;;0.92;70.43;100719.31;1088425;54;20033;-79
2021/12/21 18:42:37;;;;;;;11.02;7.13;;;;;;;0.95;70.59;100713.88;1088384;54;20023;-79
2021/12/21 18:43:43;;;;;;;12.85;7.05;;;;;;;0.94;70.46;100722.72;1088579;54;20022;-81
2021/12/21 18:46:26;;;;;;;12.75;8.07;;;;;;;0.91;70.46;100723.69;1089476;46;20030;-78
2021/12/21 18:47:33;;;;;;;14.23;8.80;;;;;;;0.90;70.71;100721.13;1088764;46;20038;-79
2021/12/21 18:48:38;;;;;;;13.65;7.72;;;;;;;0.91;70.46;100726.31;1090033;46;20053;-79
2021/12/21 18:49:41;;;;;;;15.80;8.25;;;;;;;0.90;70.64;100723.78;1092327;46;20057;-78
2021/12/21 18:50:57;;;;;;;10.98;7.32;;;;;;;0.90;70.66;100721.13;1090645;46;20107;-78
2021/12/21 18:52:01;;;;;;;12.70;7.68;;;;;;;0.91;70.61;100726.31;1088474;54;20030;-81
2021/12/21 18:53:07;;;;;;;11.98;6.93;;;;;;;0.95;70.35;100728.84;1088409;54;20031;-79
2021/12/21 18:54:09;;;;;;;10.73;6.68;;;;;;;0.95;70.22;100731.47;1088459;54;20038;-78
2021/12/21 18:55:32;;;;;;;11.15;6.82;;;;;;;0.87;70.47;100732.66;1088342;54;20021;-79
2021/12/21 18:56:37;;;;;;;9.95;7.00;;;;;;;0.87;70.58;100727.41;1088774;39;20684;-79
2021/12/21 18:57:45;;;;;;;12.05;7.63;;;;;;;0.91;70.41;100728.13;1088393;54;20102;-78
2021/12/21 18:58:52;;;;;;;11.65;6.85;;;;;;;0.93;70.27;100729.75;1088404;54;20057;-79
2021/12/21 18:59:57;;;;;;;9.50;6.30;;;;;;;0.92;70.53;100735.09;1088334;54;20029;-79
2021/12/21 19:01:08;;;;;;;11.05;6.55;;;;;;;0.93;70.37;100728.91;1088306;54;20018;-80
2021/12/21 19:02:15;;;;;;;9.98;6.70;;;;;;;0.92;70.14;100730.69;1088289;54;20046;-80
2021/12/21 19:03:25;;;;;;;10.27;7.03;;;;;;;0.91;70.24;100733.38;1091020;46;20050;-80
2021/12/21 19:04:31;;;;;;;12.13;7.22;;;;;;;0.86;70.47;100723.06;1090380;46;20070;-81
2021/12/21 19:05:37;;;;;;;12.77;7.78;;;;;;;0.83;70.53;100727.59;1088466;54;20034;-80
2021/12/21 19:06:43;;;;;;;11.13;7.63;;;;;;;0.84;70.62;100721.41;1088312;54;20030;-80
2021/12/21 19:07:47;;;;;;;10.90;7.40;;;;;;;0.83;70.24;100730.22;1089970;31;20735;-79
2021/12/21 19:08:52;;;;;;;10.35;7.72;;;;;;;0.86;70.57;100730.06;1088306;54;20053;-80
2021/12/21 19:10:08;;;;;;;12.02;7.88;;;;;;;0.83;70.46;100724.97;1088282;54;20034;-82
2021/12/21 19:11:29;;;;;;;12.60;7.38;;;;;;;0.81;70.13;100732.06;1088275;54;20061;-79
2021/12/21 19:12:32;;;;;;;12.38;6.57;;;;;;;0.80;70.46;100727.72;1088254;54;20022;-78
2021/12/21 19:13:48;;;;;;;10.43;6.97;;;;;;;0.78;70.36;100728.63;1088148;54;20831;-79
2021/12/21 19:14:55;;;;;;;12.50;7.43;;;;;;;0.82;70.53;100734.63;1088208;54;20109;-80
2021/12/21 19:16:02;;;;;;;9.55;7.05;;;;;;;0.83;70.56;100730.22;1088193;54;20748;-80
2021/12/21 19:17:05;;;;;;;11.63;7.22;;;;;;;0.84;70.51;100727.53;1089125;39;20801;-80
2021/12/21 19:18:12;;;;;;;13.63;7.35;;;;;;;0.83;70.36;100732.84;1088160;54;20022;-81
2021/12/21 19:19:17;;;;;;;10.90;6.72;;;;;;;0.86;70.38;100730.06;1088266;54;20086;-80
2021/12/21 19:20:22;;;;;;;12.40;7.40;;;;;;;0.85;70.17;100734.50;1088113;54;20045;-80
2021/12/21 19:21:27;;;;;;;12.07;7.68;;;;;;;0.83;70.43;100732.84;1088148;54;20034;-79
2021/12/21 19:22:36;;;;;;;10.48;7.25;;;;;;;0.84;70.29;100726.69;1088199;54;20019;-82
2021/12/21 19:23:38;;;;;;;10.65;7.43;;;;;;;0.83;70.17;100727.59;1088121;54;20058;-80
2021/12/21 19:24:44;;;;;;;13.57;7.65;;;;;;;0.81;70.30;100725.00;1088082;54;20781;-82
2021/12/21 19:25:49;;;;;;;14.00;8.70;;;;;;;0.77;70.30;100726.91;1088085;54;21052;-82
2021/12/21 19:26:53;;;;;;;12.63;8.25;;;;;;;0.75;70.22;100723.53;1088284;54;20039;-79
2021/12/21 19:28:00;;;;;;;12.30;8.23;;;;;;;0.75;70.18;100727.91;1088284;47;20030;-79
2021/12/21 19:29:06;;;;;;;14.35;8.77;;;;;;;0.73;70.33;100725.34;1088128;54;20022;-80
2021/12/21 19:30:15;;;;;;;13.20;8.13;;;;;;;0.77;70.31;100726.91;1088240;54;20050;-80
2021/12/21 19:31:20;;;;;;;12.43;8.95;;;;;;;0.73;70.19;100725.34;1088312;54;20018;-81
2021/12/21 19:32:26;;;;;;;15.23;10.18;;;;;;;0.72;70.33;100728.91;1088224;54;20030;-79
2021/12/21 19:33:37;;;;;;;12.30;8.30;;;;;;;0.72;70.05;100728.03;1088188;54;20034;-78
2021/12/21 19:34:42;;;;;;;11.70;7.80;;;;;;;0.75;70.49;100722.66;1088350;54;20038;-78
2021/12/21 19:35:50;;;;;;;12.27;7.43;;;;;;;0.76;70.31;100719.94;1088197;54;20034;-79
2021/12/21 19:36:56;;;;;;;13.40;8.40;;;;;;;0.76;70.13;100725.19;1088288;54;20030;-81
2021/12/21 19:38:01;;;;;;;15.90;8.73;;;;;;;0.72;70.09;100723.63;1088089;54;20027;-81
2021/12/21 19:39:08;;;;;;;12.15;7.95;;;;;;;0.73;70.29;100725.34;1088304;54;20082;-79
2021/12/21 19:40:11;;;;;;;13.02;7.72;;;;;;;0.75;70.32;100727.91;1088296;54;20030;-79
2021/12/21 19:41:16;;;;;;;12.00;7.55;;;;;;;0.76;70.07;100734.88;1088263;54;20015;-79
2021/12/21 19:42:21;;;;;;;11.43;8.32;;;;;;;0.72;70.13;100730.66;1088217;54;20025;-81
2021/12/21 19:43:26;;;;;;;13.20;9.25;;;;;;;0.69;70.23;100729.03;1088208;54;20023;-80
2021/12/21 19:44:31;;;;;;;16.33;8.75;;;;;;;0.68;70.22;100732.56;1087603;54;20659;-79
2021/12/21 19:45:35;;;;;;;14.73;9.02;;;;;;;0.68;70.50;100731.72;1087538;54;20026;-78
2021/12/21 19:46:39;;;;;;;13.23;8.55;;;;;;;0.69;70.43;100734.28;1087572;54;20034;-78
2021/12/21 19:47:41;;;;;;;12.18;7.82;;;;;;;0.73;70.44;100738.50;1087556;54;20015;-79
2021/12/21 19:48:48;;;;;;;13.68;7.97;;;;;;;0.70;70.30;100746.53;1087558;54;20034;-79
2021/12/21 19:49:49;;;;;;;13.40;9.18;;;;;;;0.68;70.49;100745.72;1087561;54;20065;-79
2021/12/21 19:50:54;;;;;;;12.65;8.07;;;;;;;0.73;70.27;100735.88;1087626;47;20769;-78
2021/12/21 19:51:55;;;;;;;11.57;7.13;;;;;;;0.76;70.36;100746.25;1087606;54;20030;-78
2021/12/21 19:53:00;;;;;;;11.05;7.53;;;;;;;0.70;70.09;100749.16;1087405;54;20107;-81
2021/12/21 19:54:04;;;;;;;16.23;9.52;;;;;;;0.62;70.39;100749.47;1087547;54;20034;-78
2021/12/21 19:55:07;;;;;;;14.32;9.85;;;;;;;0.58;70.44;100758.44;1087431;54;20041;-78
2021/12/21 19:56:12;;;;;;;14.98;9.13;;;;;;;0.59;70.50;100748.75;1087511;54;20030;-79
2021/12/21 19:57:13;;;;;;;15.63;9.77;;;;;;;0.55;70.38;100749.81;1087476;54;20041;-78
2021/12/21 19:58:18;;;;;;;19.23;10.55;;;;;;;0.51;70.80;100758.72;1087328;54;21033;-79
2021/12/21 19:59:22;;;;;;;16.83;9.98;;;;;;;0.49;70.73;100750.03;1087371;54;20030;-81
2021/12/21 20:00:31;;;;;;;16.38;9.75;;;;;;;0.49;70.86;100760.56;1088830;39;20713;-79
2021/12/21 20:01:36;;;;;;;13.13;8.75;;;;;;;0.52;70.90;100765.72;1087112;46;20035;-79
2021/12/21 20:02:38;;;;;;;12.38;8.80;;;;;;;0.51;70.71;100762.25;1087034;54;20058;-78
2021/12/21 20:03:43;;;;;;;13.27;8.02;;;;;;;0.57;70.72;100761.09;1086961;54;20034;-77
2021/12/21 20:04:49;;;;;;;11.02;7.40;;;;;;;0.58;70.60;100757.56;1087433;54;20069;-78
2021/12/21 20:05:54;;;;;;;12.45;8.43;;;;;;;0.58;70.60;100762.81;1087477;54;20045;-78
2021/12/21 20:07:00;;;;;;;14.45;8.57;;;;;;;0.61;70.34;100763.53;1087431;54;20035;-77
2021/12/21 20:08:05;;;;;;;11.82;7.85;;;;;;;0.61;70.39;100753.03;1087447;54;20034;-77
2021/12/21 20:09:08;;;;;;;13.10;7.90;;;;;;;0.59;70.58;100762.78;1087490;54;20035;-78
2021/12/21 20:10:23;;;;;;;11.70;8.02;;;;;;;0.59;70.73;100764.53;1087482;54;20042;-77
2021/12/21 20:11:40;;;;;;;10.60;7.32;;;;;;;0.55;70.67;100762.97;1087534;54;20030;-79
2021/12/21 20:12:44;;;;;;;11.15;7.80;;;;;;;0.49;70.72;100756.19;1087402;54;20911;-77
2021/12/21 20:13:53;;;;;;;12.48;7.40;;;;;;;0.51;70.68;100756.09;1087465;54;20034;-78
2021/12/21 20:14:58;;;;;;;12.38;8.25;;;;;;;0.46;70.98;100758.94;1087418;54;20031;-78
2021/12/21 20:16:03;;;;;;;11.30;7.63;;;;;;;0.45;70.78;100765.09;1087500;54;21258;-76
2021/12/21 20:17:06;;;;;;;14.13;8.13;;;;;;;0.44;70.80;100764.25;1087544;39;20059;-76
2021/12/21 20:18:13;;;;;;;12.38;8.30;;;;;;;0.43;70.94;100759.03;1087333;54;20037;-76
2021/12/21 20:19:14;;;;;;;16.40;9.18;;;;;;;0.41;70.72;100755.63;1087461;54;20031;-79
2021/12/21 20:20:21;;;;;;;10.77;7.90;;;;;;;0.40;70.69;100757.41;1087397;54;20022;-79
2021/12/21 20:21:26;;;;;;;13.23;8.98;;;;;;;0.30;70.85;100756.06;1087391;54;20031;-78
2021/12/21 20:22:32;;;;;;;14.75;8.65;;;;;;;0.30;70.98;100758.69;1087701;46;20718;-76
2021/12/21 20:23:37;;;;;;;13.38;8.27;;;;;;;0.29;71.17;100762.22;1087393;54;20041;-77
2021/12/21 20:24:43;;;;;;;12.52;8.57;;;;;;;0.27;71.15;100759.66;1087521;54;20035;-78
2021/12/21 20:25:48;;;;;;;14.90;9.50;;;;;;;0.33;71.13;100752.47;1087449;54;20046;-77
2021/12/21 20:26:50;;;;;;;15.25;8.63;;;;;;;0.33;71.27;100753.31;1087378;54;20031;-76
2021/12/21 20:27:55;;;;;;;14.48;9.27;;;;;;;0.28;71.16;100756.13;1087260;54;20034;-77
2021/12/21 20:29:00;;;;;;;14.13;9.30;;;;;;;0.24;71.25;100756.31;1087320;54;20034;-76
2021/12/21 20:30:05;;;;;;;13.40;8.88;;;;;;;0.19;71.25;100751.22;1087485;54;20038;-77
2021/12/21 20:31:09;;;;;;;14.40;9.48;;;;;;;0.21;71.16;100753.78;1087409;54;20061;-78
2021/12/21 20:32:11;;;;;;;15.63;9.70;;;;;;;0.18;71.38;100751.31;1087394;54;20038;-77
2021/12/21 20:33:16;;;;;;;12.45;8.35;;;;;;;0.21;71.47;100754.66;1088809;39;20983;-78
2021/12/21 20:34:20;;;;;;;12.95;8.85;;;;;;;0.24;71.31;100758.94;1087369;54;20030;-77
2021/12/21 20:35:27;;;;;;;14.40;8.82;;;;;;;0.26;70.99;100757.94;1087424;54;20030;-76
2021/12/21 20:36:32;;;;;;;14.43;7.97;;;;;;;0.28;71.17;100755.28;1087474;54;20035;-77
2021/12/21 20:37:36;;;;;;;14.80;8.70;;;;;;;0.26;71.00;100754.47;1087367;54;20042;-76
2021/12/21 20:38:40;;;;;;;10.88;7.82;;;;;;;0.28;70.95;100756.13;1087353;54;20058;-77
2021/12/21 20:39:43;;;;;;;10.10;7.50;;;;;;;0.28;71.19;100757.91;1087449;54;20034;-77
2021/12/21 20:40:47;;;;;;;14.70;8.65;;;;;;;0.29;71.05;100751.69;1087394;54;20035;-77
2021/12/21 20:41:49;;;;;;;11.65;7.50;;;;;;;0.32;71.03;100753.38;1087409;54;20031;-77
2021/12/21 20:42:57;;;;;;;11.75;7.32;;;;;;;0.35;70.88;100746.22;1087310;54;20038;-77
2021/12/21 20:44:01;;;;;;;12.48;7.97;;;;;;;0.34;71.27;100751.53;1087332;54;20040;-75
2021/12/21 20:45:06;;;;;;;11.55;7.22;;;;;;;0.40;71.06;100749.50;1087362;54;20035;-77
2021/12/21 20:46:11;;;;;;;11.35;7.53;;;;;;;0.39;70.71;100750.41;1087403;54;20037;-76
2021/12/21 20:47:13;;;;;;;10.88;7.47;;;;;;;0.41;70.69;100751.22;1087344;54;20041;-76
2021/12/21 20:48:18;;;;;;;10.40;6.55;;;;;;;0.43;70.72;100744.13;1087347;54;20061;-77
2021/12/21 20:49:22;;;;;;;13.70;9.45;;;;;;;0.32;70.76;100756.84;1087369;54;20041;-76
2021/12/21 20:50:31;;;;;;;13.88;9.75;;;;;;;0.28;71.21;100753.50;1087396;46;20035;-77
2021/12/21 20:51:35;;;;;;;16.15;9.20;;;;;;;0.26;70.98;100754.47;1087578;54;20035;-77
2021/12/21 20:52:38;;;;;;;13.45;8.57;;;;;;;0.28;71.25;100756.13;1087541;54;20035;-75
2021/12/21 20:53:42;;;;;;;14.60;8.70;;;;;;;0.30;70.93;100753.41;1089751;39;20275;-77
2021/12/21 20:54:47;;;;;;;11.82;8.38;;;;;;;0.34;71.01;100754.16;1087774;54;20030;-77
2021/12/21 20:55:53;;;;;;;13.60;8.80;;;;;;;0.33;70.98;100748.03;1089066;46;20034;-76
2021/12/21 20:56:58;;;;;;;12.35;7.70;;;;;;;0.37;70.77;100756.66;1087426;54;20041;-76
2021/12/21 20:57:59;;;;;;;12.70;8.25;;;;;;;0.33;70.77;100752.47;1087716;46;20046;-76
2021/12/21 20:59:04;;;;;;;11.35;8.10;;;;;;;0.34;70.73;100755.03;1087310;54;20034;-76
2021/12/21 21:00:08;;;;;;;15.57;9.38;;;;;;;0.26;71.10;100762.38;1088124;46;20038;-77
2021/12/21 21:01:13;;;;;;;11.65;8.05;;;;;;;0.23;70.83;100755.47;1087311;54;20030;-77
2021/12/21 21:02:17;;;;;;;13.88;8.55;;;;;;;0.21;71.17;100759.06;1088616;39;21024;-76
2021/12/21 21:03:22;;;;;;;13.52;8.48;;;;;;;0.15;71.08;100758.38;1087286;54;20034;-77
2021/12/21 21:04:27;;;;;;;14.55;9.30;;;;;;;0.11;71.44;100756.78;1086811;54;20039;-78
2021/12/21 21:05:34;;;;;;;16.85;9.75;;;;;;;0.09;71.35;100758.66;1087309;54;20030;-76
2021/12/21 21:06:38;;;;;;;14.65;9.38;;;;;;;0.07;71.34;100759.59;1087304;54;20045;-77
2021/12/21 21:07:44;;;;;;;15.00;9.50;;;;;;;0.04;71.52;100757.94;1087421;54;20030;-76
2021/12/21 21:08:48;;;;;;;14.85;9.80;;;;;;;0.07;71.69;100756.97;1087383;54;20038;-76
2021/12/21 21:09:50;;;;;;;15.57;9.27;;;;;;;0.03;71.40;100756.22;1087308;54;20039;-76
2021/12/21 21:10:55;;;;;;;16.55;10.68;;;;;;;-0.05;71.71;100756.53;1087345;54;20034;-77
2021/12/21 21:11:59;;;;;;;15.45;10.82;;;;;;;-0.07;71.78;100766.25;1090270;39;20958;-76
2021/12/21 21:13:03;;;;;;;18.70;10.20;;;;;;;-0.06;71.75;100760.09;1087251;54;20034;-77
2021/12/21 21:14:08;;;;;;;15.27;9.95;;;;;;;-0.07;71.96;100766.25;1087327;54;20034;-76
2021/12/21 21:15:13;;;;;;;15.00;10.85;;;;;;;-0.09;71.75;100772.47;1090372;39;20610;-76
2021/12/21 21:16:17;;;;;;;15.00;10.02;;;;;;;-0.09;72.03;100767.22;1087274;54;20031;-77
2021/12/21 21:17:18;;;;;;;14.57;10.45;;;;;;;-0.09;72.01;100769.84;1087269;54;20037;-76
2021/12/21 21:18:24;;;;;;;15.88;9.93;;;;;;;-0.10;71.80;100766.38;1087230;54;20030;-75
2021/12/21 21:19:26;;;;;;;15.70;10.00;;;;;;;-0.12;71.91;100777.88;1087282;54;20034;-77
2021/12/21 21:20:30;;;;;;;18.98;11.68;;;;;;;-0.14;72.02;100779.69;1087361;54;20026;-77
2021/12/21 21:21:37;;;;;;;18.27;10.48;;;;;;;-0.17;72.26;100784.13;1087352;54;20061;-78
2021/12/21 21:22:41;;;;;;;15.27;10.35;;;;;;;-0.24;72.28;100777.41;1087282;54;20030;-77
2021/12/21 21:23:46;;;;;;;15.77;10.15;;;;;;;-0.27;72.55;100782.75;1087274;54;20034;-77
2021/12/21 21:24:47;;;;;;;14.32;9.90;;;;;;;-0.26;72.48;100781.00;1087343;54;20039;-77
2021/12/21 21:25:52;;;;;;;20.13;11.73;;;;;;;-0.33;72.53;100780.38;1087675;39;20579;-77
2021/12/21 21:26:56;;;;;;;15.07;10.77;;;;;;;-0.35;72.69;100790.09;1087286;54;20038;-77
2021/12/21 21:27:58;;;;;;;15.35;10.25;;;;;;;-0.39;72.63;100778.00;1087182;54;20041;-76
2021/12/21 21:29:06;;;;;;;16.42;10.65;;;;;;;-0.40;72.77;100781.53;1087262;54;20026;-77
2021/12/21 21:30:10;;;;;;;17.80;10.80;;;;;;;-0.43;72.94;100792.13;1087314;54;20065;-77
2021/12/21 21:31:14;;;;;;;19.45;12.52;;;;;;;-0.50;73.19;100786.25;1087325;54;20061;-76
2021/12/21 21:32:18;;;;;;;17.80;11.10;;;;;;;-0.55;73.17;100789.03;1087239;54;20034;-77
2021/12/21 21:33:22;;;;;;;18.48;12.40;;;;;;;-0.59;73.20;100786.56;1087242;54;20038;-77
2021/12/21 21:34:24;;;;;;;16.95;10.85;;;;;;;-0.58;73.33;100791.78;1087250;54;20034;-78
2021/12/21 21:35:28;;;;;;;17.98;11.27;;;;;;;-0.58;73.24;100794.41;1087318;54;20110;-77
2021/12/21 21:36:32;;;;;;;17.00;11.73;;;;;;;-0.57;73.23;100797.88;1087257;54;20035;-77
2021/12/21 21:37:37;;;;;;;15.40;10.32;;;;;;;-0.54;73.23;100796.00;1087292;54;20034;-77
2021/12/21 21:38:41;;;;;;;17.75;11.23;;;;;;;-0.56;73.38;100797.81;1087241;54;20037;-76
2021/12/21 21:39:45;;;;;;;18.67;10.77;;;;;;;-0.51;73.17;100800.28;1087255;54;20030;-76
2021/12/21 21:40:47;;;;;;;16.60;11.48;;;;;;;-0.51;73.15;100797.66;1087258;54;20992;-77
2021/12/21 21:41:52;;;;;;;15.77;11.63;;;;;;;-0.57;73.12;100806.66;1087255;54;20114;-76
2021/12/21 21:42:56;;;;;;;17.98;12.00;;;;;;;-0.63;73.22;100797.22;1087279;54;20034;-76
2021/12/21 21:43:58;;;;;;;17.95;11.60;;;;;;;-0.62;73.31;100798.06;1087237;54;20034;-78
2021/12/21 21:45:02;;;;;;;17.42;11.50;;;;;;;-0.66;73.35;100804.34;1087245;54;20057;-76
2021/12/21 21:46:06;;;;;;;16.20;11.48;;;;;;;-0.62;73.38;100798.06;1087167;54;20038;-76
2021/12/21 21:47:08;;;;;;;17.83;11.55;;;;;;;-0.65;73.57;100806.91;1087303;54;20045;-76
2021/12/21 21:48:13;;;;;;;19.35;11.32;;;;;;;-0.60;73.24;100798.00;1087218;54;20035;-76
2021/12/21 21:49:16;;;;;;;15.27;9.93;;;;;;;-0.55;73.23;100806.59;1087302;54;20038;-77
2021/12/21 21:50:21;;;;;;;16.73;11.10;;;;;;;-0.57;73.23;100804.03;1090807;39;20909;-76
2021/12/21 21:51:25;;;;;;;18.10;10.85;;;;;;;-0.60;73.37;100809.38;1087342;54;20042;-78
2021/12/21 21:52:27;;;;;;;19.33;11.35;;;;;;;-0.62;73.29;100805.94;1088217;47;20030;-77
2021/12/21 21:53:46;;;;;;;17.88;11.65;;;;;;;-0.60;73.27;100806.75;1088611;46;20038;-77
2021/12/21 21:54:47;;;;;;;15.38;10.18;;;;;;;-0.61;73.29;100805.03;1087486;54;20046;-76
2021/12/21 21:55:52;;;;;;;16.05;10.82;;;;;;;-0.60;73.50;100812.00;1087236;54;20031;-76
2021/12/21 21:56:56;;;;;;;16.58;10.80;;;;;;;-0.58;73.21;100802.31;1087151;54;20030;-77
2021/12/21 21:57:57;;;;;;;17.70;10.60;;;;;;;-0.55;73.25;100801.31;1087150;54;20035;-76
2021/12/21 21:59:03;;;;;;;15.75;10.32;;;;;;;-0.62;73.41;100803.31;1087695;39;20654;-77
2021/12/21 22:00:09;;;;;;;17.27;11.20;;;;;;;-0.58;73.31;100801.44;1087252;54;20041;-76
2021/12/21 22:01:11;;;;;;;15.15;9.95;;;;;;;-0.51;73.07;100803.78;1087244;54;20030;-77
2021/12/21 22:02:15;;;;;;;13.98;9.95;;;;;;;-0.50;73.23;100805.50;1087073;54;20041;-76
2021/12/21 22:03:17;;;;;;;14.93;9.43;;;;;;;-0.45;72.95;100805.34;1087217;54;20032;-77
2021/12/21 22:04:21;;;;;;;15.30;10.35;;;;;;;-0.44;72.71;100799.19;1087229;54;20049;-77
2021/12/21 22:05:23;;;;;;;14.95;10.25;;;;;;;-0.47;72.85;100809.78;1087152;54;20037;-76
2021/12/21 22:06:28;;;;;;;13.55;9.40;;;;;;;-0.41;72.63;100800.81;1087457;54;20034;-78
2021/12/21 22:07:32;;;;;;;15.43;9.98;;;;;;;-0.40;72.56;100806.00;1087514;54;20034;-76
2021/12/21 22:08:39;;;;;;;14.27;9.52;;;;;;;-0.40;72.62;100799.91;1087415;54;20037;-78
2021/12/21 22:09:44;;;;;;;13.73;9.55;;;;;;;-0.40;72.77;100792.88;1087559;54;20034;-76
2021/12/21 22:10:45;;;;;;;15.07;9.32;;;;;;;-0.39;72.51;100796.38;1087530;54;20061;-78
2021/12/21 22:11:49;;;;;;;13.90;9.88;;;;;;;-0.34;72.67;100799.69;1087518;54;20069;-75
2021/12/21 22:12:54;;;;;;;12.27;8.48;;;;;;;-0.34;72.56;100799.69;1087584;54;20022;-77
2021/12/21 22:13:59;;;;;;;14.85;9.50;;;;;;;-0.31;72.43;100791.69;1087585;54;20098;-77
2021/12/21 22:15:03;;;;;;;11.20;8.32;;;;;;;-0.26;72.44;100799.41;1087542;54;20034;-78
2021/12/21 22:16:08;;;;;;;11.93;7.80;;;;;;;-0.22;72.30;100808.88;1087559;54;20777;-77
2021/12/21 22:17:13;;;;;;;13.20;8.52;;;;;;;-0.20;72.13;100801.78;1087560;54;20041;-77
2021/12/21 22:18:15;;;;;;;12.30;7.88;;;;;;;-0.22;72.33;100809.75;1087471;54;20034;-76
2021/12/21 22:19:20;;;;;;;11.00;7.70;;;;;;;-0.20;72.29;100801.78;1087515;54;20040;-78
2021/12/21 22:20:24;;;;;;;12.80;8.20;;;;;;;-0.17;72.20;100797.28;1087639;54;20034;-76
2021/12/21 22:21:26;;;;;;;12.35;8.05;;;;;;;-0.14;71.97;100792.84;1087594;54;20058;-77
2021/12/21 22:22:30;;;;;;;12.35;7.95;;;;;;;-0.15;72.09;100797.25;1087530;54;20053;-77
2021/12/21 22:23:34;;;;;;;15.30;8.27;;;;;;;-0.19;71.98;100800.88;1087541;54;20030;-77
2021/12/21 22:24:41;;;;;;;13.30;8.27;;;;;;;-0.15;71.96;100794.63;1087522;54;20030;-77
2021/12/21 22:25:42;;;;;;;12.98;8.05;;;;;;;-0.18;71.77;100797.34;1087571;54;20034;-77
2021/12/21 22:26:47;;;;;;;13.50;8.18;;;;;;;-0.14;71.84;100801.56;1087640;54;20053;-77
2021/12/21 22:27:51;;;;;;;12.38;8.30;;;;;;;-0.13;71.90;100797.19;1087574;54;20039;-76
2021/12/21 22:28:55;;;;;;;11.35;7.55;;;;;;;-0.12;71.63;100804.16;1087591;54;20034;-77
2021/12/21 22:29:57;;;;;;;13.93;9.25;;;;;;;-0.11;71.62;100800.59;1087566;54;20030;-78
2021/12/21 22:31:02;;;;;;;14.35;8.60;;;;;;;-0.12;71.72;100799.72;1087547;54;20042;-78
2021/12/21 22:32:07;;;;;;;13.65;8.73;;;;;;;-0.14;71.69;100800.72;1087570;54;20038;-77
2021/12/21 22:33:09;;;;;;;14.95;8.65;;;;;;;-0.17;71.80;100805.16;1087444;54;20041;-77
2021/12/21 22:34:13;;;;;;;15.00;11.13;;;;;;;-0.32;71.54;100808.38;1087538;54;20030;-76
2021/12/21 22:35:15;;;;;;;14.07;9.85;;;;;;;-0.34;72.01;100804.94;1087557;54;20026;-77
2021/12/21 22:36:20;;;;;;;15.05;9.65;;;;;;;-0.34;72.02;100811.06;1087526;54;20030;-78
2021/12/21 22:37:26;;;;;;;14.85;10.93;;;;;;;-0.43;71.98;100805.28;1087598;54;20037;-78
2021/12/21 22:38:31;;;;;;;16.67;10.63;;;;;;;-0.45;72.34;100818.47;1087475;54;20031;-77
2021/12/21 22:39:35;;;;;;;15.35;10.80;;;;;;;-0.52;72.45;100817.84;1087531;54;20030;-78
2021/12/21 22:40:42;;;;;;;14.65;11.25;;;;;;;-0.58;72.75;100817.19;1087535;54;20030;-77
2021/12/21 22:41:46;;;;;;;17.27;11.88;;;;;;;-0.59;72.85;100825.97;1087547;54;20042;-77
2021/12/21 22:42:48;;;;;;;17.20;10.77;;;;;;;-0.62;72.66;100816.44;1087327;54;20034;-78
2021/12/21 22:43:55;;;;;;;16.42;11.10;;;;;;;-0.65;72.73;100812.16;1087566;54;20026;-76
2021/12/21 22:44:56;;;;;;;17.20;10.77;;;;;;;-0.67;72.84;100813.13;1087506;54;20039;-76
2021/12/21 22:46:01;;;;;;;15.27;10.52;;;;;;;-0.64;73.01;100813.00;1087530;54;20030;-77
2021/12/21 22:47:03;;;;;;;15.45;10.93;;;;;;;-0.67;72.88;100808.72;1087533;54;20035;-77
2021/12/21 22:48:09;;;;;;;16.25;10.98;;;;;;;-0.74;73.06;100816.88;1089111;39;20847;-76
2021/12/21 22:49:16;;;;;;;16.95;11.55;;;;;;;-0.76;73.21;100813.47;1087539;54;20037;-77
2021/12/21 22:50:18;;;;;;;16.20;10.63;;;;;;;-0.76;73.31;100813.47;1087528;54;20042;-76
2021/12/21 22:51:22;;;;;;;16.80;11.15;;;;;;;-0.80;73.08;100813.56;1087552;54;20030;-78
2021/12/21 22:52:24;;;;;;;18.00;11.98;;;;;;;-0.81;73.12;100814.47;1088953;39;21063;-78
2021/12/21 22:53:28;;;;;;;16.50;11.32;;;;;;;-0.84;73.43;100811.94;1095367;31;20714;-78
2021/12/21 22:54:32;;;;;;;18.10;11.48;;;;;;;-0.83;73.18;100820.69;1087587;54;20034;-78
2021/12/21 22:55:34;;;;;;;16.40;11.85;;;;;;;-0.86;73.28;100812.91;1088474;39;20697;-78
2021/12/21 22:56:41;;;;;;;16.85;10.77;;;;;;;-0.84;73.58;100817.19;1087599;54;20118;-77
2021/12/21 22:57:46;;;;;;;16.23;10.45;;;;;;;-0.81;73.46;100816.25;1087708;46;20062;-77
2021/12/21 22:58:47;;;;;;;15.90;10.82;;;;;;;-0.88;73.43;100823.47;1087931;39;20303;-77
2021/12/21 22:59:51;;;;;;;16.30;10.80;;;;;;;-0.84;73.35;100825.06;1087512;54;20026;-76
2021/12/21 23:00:55;;;;;;;15.63;10.68;;;;;;;-0.83;73.27;100824.16;1087545;54;20037;-77
2021/12/21 23:01:59;;;;;;;13.85;10.27;;;;;;;-0.75;73.19;100825.66;1087373;54;20037;-79